Time;durP1;ratioP1;P1;durP2;ratioP2;P2;SDS_P1;SDS_P2;PMS_P1;PMS_P2;Temp;Humidity;BMP_temperature;BMP_pressure;BME280_temperature;BME280_humidity;BME280_pressure;Samples;Min_cycle;Max_cycle;Signal;HPM_P1;HPM_P2
2021/08/07 00:01:01;;;;;;;11.95;5.80;;;15.80;99.90;;;;;;4988816;28;20037;-63
2021/08/07 00:03:26;;;;;;;6.47;4.72;;;15.80;99.90;;;;;;4989857;28;20459;-63
2021/08/07 00:05:52;;;;;;;9.13;5.30;;;15.80;99.90;;;;;;4986091;28;20038;-63
2021/08/07 00:08:17;;;;;;;9.15;6.15;;;15.90;99.90;;;;;;4989778;28;20045;-63
2021/08/07 00:10:44;;;;;;;10.75;5.72;;;15.90;99.90;;;;;;4988940;28;20038;-63
2021/08/07 00:13:09;;;;;;;8.60;5.35;;;15.80;99.90;;;;;;4987741;28;20041;-64
2021/08/07 00:15:35;;;;;;;6.38;5.70;;;15.80;99.90;;;;;;4990921;28;20372;-64
2021/08/07 00:18:01;;;;;;;7.13;6.05;;;15.80;99.90;;;;;;4985889;28;20049;-64
2021/08/07 00:20:27;;;;;;;9.00;6.25;;;15.80;99.90;;;;;;4989239;28;20104;-64
2021/08/07 00:22:53;;;;;;;9.70;6.15;;;15.90;99.90;;;;;;4970059;28;20123;-65
2021/08/07 00:25:19;;;;;;;9.50;5.88;;;15.90;99.90;;;;;;4986800;28;20117;-64
2021/08/07 00:27:45;;;;;;;6.85;5.63;;;15.90;99.90;;;;;;4988181;28;20068;-64
2021/08/07 00:30:11;;;;;;;11.95;5.72;;;15.90;99.90;;;;;;4990596;28;20436;-65
2021/08/07 00:32:38;;;;;;;6.50;5.53;;;15.90;99.90;;;;;;4989040;28;20054;-64
2021/08/07 00:35:04;;;;;;;10.63;5.95;;;15.90;99.90;;;;;;4999448;28;20050;-64
2021/08/07 00:37:30;;;;;;;8.57;6.55;;;15.90;99.90;;;;;;4999438;28;20091;-64
2021/08/07 00:39:55;;;;;;;10.20;6.85;;;15.90;99.90;;;;;;4992384;28;20038;-65
2021/08/07 00:42:21;;;;;;;8.75;5.93;;;15.90;99.90;;;;;;4988822;28;20030;-64
2021/08/07 00:44:47;;;;;;;8.32;7.30;;;15.90;99.90;;;;;;4990426;28;20042;-65
2021/08/07 00:47:13;;;;;;;10.02;6.65;;;15.90;99.90;;;;;;4989396;28;20494;-64
2021/08/07 00:49:38;;;;;;;9.32;6.75;;;15.90;99.90;;;;;;4972206;28;20503;-65
2021/08/07 00:52:07;;;;;;;7.78;6.70;;;16.00;99.90;;;;;;4989295;28;20100;-65
2021/08/07 00:54:33;;;;;;;7.10;6.40;;;15.90;99.90;;;;;;4986919;28;20113;-65
2021/08/07 00:56:58;;;;;;;11.52;6.93;;;16.00;99.90;;;;;;4987117;28;20092;-65
2021/08/07 00:59:24;;;;;;;8.00;6.30;;;16.00;99.90;;;;;;4981846;28;20606;-65
2021/08/07 01:01:58;;;;;;;7.25;6.28;;;16.00;99.90;;;;;;4989665;28;20046;-65
2021/08/07 01:04:28;;;;;;;7.95;6.00;;;16.00;99.90;;;;;;4985592;28;20124;-64
2021/08/07 01:07:01;;;;;;;7.63;6.50;;;16.00;99.90;;;;;;4989592;28;20112;-64
2021/08/07 01:09:34;;;;;;;7.60;6.72;;;16.10;99.90;;;;;;5001952;28;20137;-64
2021/08/07 01:12:18;;;;;;;8.32;6.88;;;16.10;99.90;;;;;;4989463;28;20732;-64
2021/08/07 01:14:45;;;;;;;11.63;6.43;;;16.10;99.90;;;;;;4987125;28;20046;-64
2021/08/07 01:17:15;;;;;;;8.68;6.00;;;16.10;99.90;;;;;;4986900;28;20084;-65
2021/08/07 01:19:57;;;;;;;9.60;5.30;;;16.10;99.90;;;;;;4987240;28;20073;-65
2021/08/07 01:22:38;;;;;;;9.95;5.03;;;16.10;99.90;;;;;;4985840;28;20887;-64
2021/08/07 01:25:08;;;;;;;8.35;5.43;;;16.10;99.90;;;;;;4989084;28;20421;-64
2021/08/07 01:27:39;;;;;;;7.80;5.03;;;16.10;99.90;;;;;;4987703;28;20046;-64
2021/08/07 01:30:08;;;;;;;5.55;4.63;;;16.10;99.90;;;;;;4987599;28;20072;-64
2021/08/07 01:32:35;;;;;;;7.97;4.40;;;16.10;99.90;;;;;;4987536;28;20058;-64
2021/08/07 01:35:02;;;;;;;5.38;4.10;;;16.00;99.90;;;;;;4988642;28;20057;-64
2021/08/07 01:37:29;;;;;;;5.28;3.47;;;16.00;99.90;;;;;;4985643;28;20034;-64
2021/08/07 01:39:56;;;;;;;8.50;3.50;;;16.00;99.90;;;;;;4984889;28;20083;-64
2021/08/07 01:42:23;;;;;;;6.68;3.28;;;16.00;99.90;;;;;;4966846;28;20036;-64
2021/08/07 01:44:49;;;;;;;6.85;3.10;;;16.00;99.90;;;;;;4988284;28;20103;-64
2021/08/07 01:47:39;;;;;;;3.67;2.47;;;16.00;99.90;;;;;;4989028;28;20042;-64
2021/08/07 01:50:13;;;;;;;4.40;2.95;;;16.00;99.90;;;;;;4981114;28;20038;-64
2021/08/07 01:52:44;;;;;;;8.73;2.90;;;16.00;99.90;;;;;;4987310;28;20046;-64
2021/08/07 01:55:18;;;;;;;3.70;2.75;;;15.90;99.90;;;;;;4985797;28;20052;-65
2021/08/07 01:57:55;;;;;;;6.05;2.83;;;15.90;99.90;;;;;;4986310;28;20361;-64
2021/08/07 02:00:22;;;;;;;6.63;2.63;;;15.90;99.90;;;;;;4986407;28;20458;-64
2021/08/07 02:02:48;;;;;;;6.45;3.20;;;15.90;99.90;;;;;;4986879;28;20077;-64
2021/08/07 02:05:18;;;;;;;4.43;2.58;;;15.90;99.90;;;;;;4988968;28;20042;-64
2021/08/07 02:07:46;;;;;;;7.53;2.97;;;15.80;99.90;;;;;;4986364;28;20052;-64
2021/08/07 02:10:12;;;;;;;5.25;2.80;;;15.80;99.90;;;;;;4987953;28;20114;-64
2021/08/07 02:12:38;;;;;;;6.57;2.75;;;15.80;99.90;;;;;;4986273;28;20149;-64
2021/08/07 02:15:04;;;;;;;4.13;2.08;;;15.80;99.90;;;;;;4988918;28;20114;-64
2021/08/07 02:17:30;;;;;;;4.57;2.55;;;15.80;99.90;;;;;;4985616;28;20031;-64
2021/08/07 02:19:56;;;;;;;9.40;2.70;;;15.80;99.90;;;;;;4986675;28;20399;-64
2021/08/07 02:22:22;;;;;;;6.55;2.50;;;15.80;99.90;;;;;;4985223;28;20419;-64
2021/08/07 02:24:48;;;;;;;5.32;2.47;;;15.80;99.90;;;;;;4987210;28;20070;-65
2021/08/07 02:27:14;;;;;;;5.20;2.40;;;15.80;99.90;;;;;;4983913;28;20047;-65
2021/08/07 02:29:41;;;;;;;4.57;2.35;;;15.70;99.90;;;;;;4986880;28;20080;-64
2021/08/07 02:32:08;;;;;;;4.47;2.67;;;15.70;99.90;;;;;;4986490;28;20050;-65
2021/08/07 02:34:35;;;;;;;4.40;2.35;;;15.70;99.90;;;;;;4986110;28;20514;-64
2021/08/07 02:37:01;;;;;;;6.00;2.60;;;15.60;99.90;;;;;;4983919;28;20035;-65
2021/08/07 02:39:27;;;;;;;4.47;2.50;;;15.60;99.90;;;;;;4986015;28;20122;-64
2021/08/07 02:41:55;;;;;;;6.70;2.70;;;15.60;99.90;;;;;;4987498;28;20034;-64
2021/08/07 02:44:20;;;;;;;4.82;2.30;;;15.60;99.90;;;;;;4982885;28;20054;-64
2021/08/07 02:46:47;;;;;;;5.07;2.40;;;15.50;99.90;;;;;;5011070;22;20046;-63
2021/08/07 02:49:13;;;;;;;7.55;2.70;;;15.50;99.90;;;;;;5012650;28;20132;-63
2021/08/07 02:51:40;;;;;;;5.15;2.55;;;15.50;99.90;;;;;;5012576;28;20117;-63
2021/08/07 02:54:06;;;;;;;5.53;2.50;;;15.40;99.90;;;;;;4998847;28;20524;-63
2021/08/07 02:56:32;;;;;;;5.85;2.65;;;15.40;99.90;;;;;;5004666;28;20042;-63
2021/08/07 02:58:58;;;;;;;5.50;2.38;;;15.40;99.90;;;;;;5003259;28;20399;-63
2021/08/07 03:01:23;;;;;;;4.07;2.03;;;15.40;99.90;;;;;;5004248;28;20038;-63
2021/08/07 03:03:49;;;;;;;5.03;2.30;;;15.40;99.90;;;;;;5007787;28;20113;-63
2021/08/07 03:06:17;;;;;;;4.35;2.10;;;15.40;99.90;;;;;;5009821;28;20054;-63
2021/08/07 03:08:43;;;;;;;6.07;2.65;;;15.40;99.90;;;;;;5008160;28;20042;-63
2021/08/07 03:11:10;;;;;;;5.03;2.20;;;15.40;99.90;;;;;;5008879;28;20040;-63
2021/08/07 03:13:36;;;;;;;5.82;2.35;;;15.30;99.90;;;;;;5009838;28;20506;-63
2021/08/07 03:16:02;;;;;;;4.30;2.30;;;15.30;99.90;;;;;;5009418;28;20041;-63
2021/08/07 03:18:29;;;;;;;5.20;2.42;;;15.30;99.90;;;;;;5009385;28;20030;-63
2021/08/07 03:20:57;;;;;;;4.85;2.97;;;15.30;99.90;;;;;;5010173;28;20117;-63
2021/08/07 03:23:23;;;;;;;6.80;2.85;;;15.30;99.90;;;;;;5013415;28;20519;-63
2021/08/07 03:25:50;;;;;;;4.85;2.42;;;;;;;;;;5008215;28;20042;-63
2021/08/07 03:28:17;;;;;;;7.32;2.75;;;15.30;99.90;;;;;;5010180;28;20036;-63
2021/08/07 03:30:42;;;;;;;5.13;2.70;;;15.30;99.90;;;;;;5009431;28;20042;-63
2021/08/07 03:33:08;;;;;;;8.25;3.10;;;15.30;99.90;;;;;;5008268;28;20555;-63
2021/08/07 03:35:34;;;;;;;7.65;2.83;;;15.30;99.90;;;;;;5008438;28;20041;-63
2021/08/07 03:37:59;;;;;;;6.53;2.67;;;15.30;99.90;;;;;;5008577;28;20049;-67
2021/08/07 03:40:25;;;;;;;9.07;2.95;;;15.30;99.90;;;;;;5009519;28;20490;-70
2021/08/07 03:42:51;;;;;;;4.90;2.58;;;15.20;99.90;;;;;;5006874;28;20042;-70
2021/08/07 03:45:17;;;;;;;6.30;2.80;;;15.10;99.90;;;;;;5017046;28;20402;-70
2021/08/07 03:47:48;;;;;;;7.15;2.72;;;15.10;99.90;;;;;;5008921;28;20053;-69
2021/08/07 03:50:14;;;;;;;5.00;2.75;;;15.00;99.90;;;;;;4991041;28;20034;-70
2021/08/07 03:52:40;;;;;;;6.60;3.03;;;15.00;99.90;;;;;;5006928;28;20386;-70
2021/08/07 03:55:06;;;;;;;9.55;3.00;;;14.90;99.90;;;;;;5010173;28;20038;-70
2021/08/07 03:57:33;;;;;;;5.82;2.75;;;14.80;99.90;;;;;;5009829;28;20034;-70
2021/08/07 03:59:58;;;;;;;6.78;2.75;;;14.80;99.90;;;;;;5010008;28;20030;-70
2021/08/07 04:02:24;;;;;;;6.88;3.20;;;14.70;99.90;;;;;;5010061;28;20199;-70
2021/08/07 04:04:50;;;;;;;5.85;3.00;;;14.70;99.90;;;;;;5010297;28;20119;-70
2021/08/07 04:07:15;;;;;;;7.85;3.05;;;14.60;99.90;;;;;;4990943;28;20030;-69
2021/08/07 04:09:41;;;;;;;7.40;2.97;;;14.60;99.90;;;;;;5007220;28;20463;-69
2021/08/07 04:12:06;;;;;;;5.25;3.03;;;14.60;99.90;;;;;;5010405;28;20037;-69
2021/08/07 04:14:35;;;;;;;6.07;3.25;;;14.50;99.90;;;;;;5006512;28;20057;-69
2021/08/07 04:17:01;;;;;;;7.63;3.03;;;14.50;99.90;;;;;;5010249;28;20485;-69
2021/08/07 04:19:27;;;;;;;4.40;2.85;;;14.40;99.90;;;;;;4993699;28;20041;-69
2021/08/07 04:21:52;;;;;;;8.40;3.25;;;14.40;99.90;;;;;;5009441;28;20083;-69
2021/08/07 04:24:18;;;;;;;6.10;2.90;;;14.40;99.90;;;;;;5009825;28;20060;-69
2021/08/07 04:26:44;;;;;;;12.48;3.10;;;14.30;99.90;;;;;;5008740;28;20037;-69
2021/08/07 04:29:09;;;;;;;6.70;3.38;;;14.30;99.90;;;;;;5008158;28;20103;-69
2021/08/07 04:31:35;;;;;;;4.75;2.83;;;14.30;99.90;;;;;;5003308;28;20038;-69
2021/08/07 04:34:00;;;;;;;7.47;3.17;;;14.30;99.90;;;;;;5009514;28;20480;-69
2021/08/07 04:36:26;;;;;;;7.43;3.20;;;14.20;99.90;;;;;;5009365;28;20063;-69
2021/08/07 04:38:51;;;;;;;6.68;3.10;;;14.30;99.90;;;;;;5009579;28;20034;-69
2021/08/07 04:41:17;;;;;;;5.75;3.20;;;14.20;99.90;;;;;;5012585;28;20540;-69
2021/08/07 04:43:43;;;;;;;6.57;3.45;;;14.20;99.90;;;;;;5007955;28;20049;-69
2021/08/07 04:46:08;;;;;;;8.38;3.47;;;14.20;99.90;;;;;;5009486;28;20041;-68
2021/08/07 04:48:34;;;;;;;6.65;3.28;;;14.20;99.90;;;;;;5009428;28;20050;-69
2021/08/07 04:51:00;;;;;;;5.25;3.47;;;14.20;99.90;;;;;;5009227;28;20041;-69
2021/08/07 04:53:26;;;;;;;10.18;3.50;;;14.30;99.90;;;;;;4999070;28;20061;-69
2021/08/07 04:55:51;;;;;;;7.75;3.72;;;14.30;99.90;;;;;;4994714;28;20116;-69
2021/08/07 04:58:17;;;;;;;6.57;3.70;;;14.40;99.90;;;;;;5010539;28;20376;-69
2021/08/07 05:00:42;;;;;;;7.55;3.63;;;14.40;99.90;;;;;;4989905;28;20034;-69
2021/08/07 05:03:08;;;;;;;5.93;3.38;;;14.50;99.90;;;;;;4991141;28;20121;-69
2021/08/07 05:05:34;;;;;;;8.82;3.80;;;14.50;99.90;;;;;;4998319;28;20050;-69
2021/08/07 05:08:00;;;;;;;8.52;3.47;;;14.60;99.90;;;;;;4999076;28;20084;-69
2021/08/07 05:10:25;;;;;;;5.88;3.80;;;14.60;99.90;;;;;;5005786;28;21393;-69
2021/08/07 05:12:51;;;;;;;9.32;4.47;;;14.70;99.90;;;;;;4992495;28;20042;-69
2021/08/07 05:15:16;;;;;;;6.85;3.60;;;14.70;99.90;;;;;;4999713;28;20048;-69
2021/08/07 05:17:42;;;;;;;6.28;3.20;;;14.80;99.90;;;;;;5009018;28;20705;-69
2021/08/07 05:20:08;;;;;;;10.52;3.60;;;15.00;99.90;;;;;;4997793;28;20048;-70
2021/08/07 05:22:34;;;;;;;7.45;3.45;;;15.20;99.90;;;;;;5008335;28;20120;-70
2021/08/07 05:25:00;;;;;;;7.55;3.60;;;15.30;99.90;;;;;;4997296;28;20113;-69
2021/08/07 05:27:25;;;;;;;9.10;3.42;;;15.40;99.90;;;;;;4991769;28;20034;-69
2021/08/07 05:29:51;;;;;;;9.90;3.15;;;15.50;99.90;;;;;;5006900;28;20133;-69
2021/08/07 05:32:16;;;;;;;9.90;3.30;;;15.60;99.90;;;;;;4985844;28;20424;-70
2021/08/07 05:34:42;;;;;;;7.80;3.53;;;15.60;99.90;;;;;;4999410;28;20063;-70
2021/08/07 05:37:08;;;;;;;10.70;2.97;;;15.60;99.90;;;;;;5003705;28;20033;-70
2021/08/07 05:39:33;;;;;;;8.05;3.35;;;15.70;99.90;;;;;;5004579;28;20038;-69
2021/08/07 05:41:59;;;;;;;8.27;3.38;;;15.70;99.90;;;;;;4990439;28;20083;-69
2021/08/07 05:44:25;;;;;;;8.50;3.78;;;15.80;99.90;;;;;;4989001;28;20072;-69
2021/08/07 05:46:50;;;;;;;6.82;3.78;;;15.90;99.90;;;;;;4988712;28;20380;-69
2021/08/07 05:49:16;;;;;;;10.52;3.50;;;16.00;99.90;;;;;;4995863;28;20050;-69
2021/08/07 05:51:42;;;;;;;7.90;2.95;;;16.30;99.90;;;;;;4995327;28;20155;-69
2021/08/07 05:54:07;;;;;;;6.13;3.45;;;16.40;99.90;;;;;;4999858;28;20038;-69
2021/08/07 05:56:33;;;;;;;9.98;3.50;;;16.50;99.90;;;;;;5000388;28;20744;-70
2021/08/07 05:58:59;;;;;;;5.72;2.92;;;17.30;99.90;;;;;;5012798;28;20065;-69
2021/08/07 06:01:25;;;;;;;7.53;2.80;;;18.80;99.90;;;;;;4994217;28;20164;-69
2021/08/07 06:03:50;;;;;;;6.10;2.90;;;20.30;99.90;;;;;;4991805;28;20675;-69
2021/08/07 06:06:16;;;;;;;6.80;2.53;;;21.60;99.90;;;;;;4991670;28;20046;-69
2021/08/07 06:08:42;;;;;;;5.00;2.60;;;22.70;99.90;;;;;;5000911;28;20072;-70
2021/08/07 06:11:08;;;;;;;8.05;2.80;;;23.40;99.90;;;;;;5003093;28;20049;-70
2021/08/07 06:13:33;;;;;;;5.40;2.38;;;24.50;98.10;;;;;;4998472;28;20110;-70
2021/08/07 06:15:59;;;;;;;6.75;2.75;;;24.90;97.50;;;;;;5006094;28;20030;-70
2021/08/07 06:18:25;;;;;;;7.65;2.60;;;24.40;97.60;;;;;;4989227;28;20045;-70
2021/08/07 06:20:50;;;;;;;4.30;2.05;;;23.70;97.40;;;;;;5002458;28;20038;-69
2021/08/07 06:23:17;;;;;;;7.13;2.67;;;23.40;98.70;;;;;;5006974;28;20042;-70
2021/08/07 06:25:43;;;;;;;8.93;2.65;;;22.90;98.70;;;;;;5001877;28;20045;-69
2021/08/07 06:28:09;;;;;;;5.85;2.72;;;22.50;99.80;;;;;;5006673;28;20415;-69
2021/08/07 06:30:35;;;;;;;6.45;2.60;;;22.00;99.90;;;;;;4998534;28;20113;-69
2021/08/07 06:33:01;;;;;;;4.82;2.38;;;21.50;99.90;;;;;;5003217;28;20041;-68
2021/08/07 06:35:26;;;;;;;5.72;2.78;;;21.30;99.90;;;;;;4985702;28;20040;-68
2021/08/07 06:37:53;;;;;;;6.00;2.40;;;21.60;99.90;;;;;;5004198;28;20034;-68
2021/08/07 06:40:19;;;;;;;4.90;2.20;;;21.50;99.90;;;;;;5003333;28;20098;-69
2021/08/07 06:42:45;;;;;;;4.70;2.25;;;21.10;99.90;;;;;;4999587;28;20376;-68
2021/08/07 06:45:11;;;;;;;5.88;2.40;;;20.70;99.90;;;;;;5009925;28;20447;-69
2021/08/07 06:47:37;;;;;;;6.63;2.67;;;20.20;99.90;;;;;;5008763;28;20056;-69
2021/08/07 06:50:05;;;;;;;7.88;2.60;;;19.90;99.90;;;;;;4997497;28;20131;-68
2021/08/07 06:52:30;;;;;;;5.63;2.58;;;19.60;99.90;;;;;;4994789;28;20129;-69
2021/08/07 06:54:56;;;;;;;6.28;2.45;;;19.50;99.90;;;;;;4998033;28;20458;-68
2021/08/07 06:57:22;;;;;;;4.25;2.35;;;19.40;99.90;;;;;;5010327;28;20114;-68
2021/08/07 06:59:47;;;;;;;6.20;2.03;;;19.30;99.90;;;;;;5007629;28;20041;-68
2021/08/07 07:02:13;;;;;;;3.60;2.03;;;19.30;99.90;;;;;;5002582;28;20044;-69
2021/08/07 07:04:39;;;;;;;7.68;2.83;;;19.20;99.90;;;;;;5007280;28;20073;-69
2021/08/07 07:07:05;;;;;;;4.35;2.47;;;19.20;99.90;;;;;;5009349;28;20072;-69
2021/08/07 07:09:31;;;;;;;7.43;2.60;;;19.20;99.90;;;;;;5008900;28;20091;-68
2021/08/07 07:11:57;;;;;;;9.68;2.90;;;19.20;99.90;;;;;;5008872;28;20069;-69
2021/08/07 07:14:23;;;;;;;6.63;2.70;;;19.20;99.90;;;;;;5009273;28;20062;-69
2021/08/07 07:16:49;;;;;;;8.55;2.72;;;19.00;99.90;;;;;;5006406;28;20034;-69
2021/08/07 07:19:15;;;;;;;6.18;3.03;;;19.10;99.90;;;;;;5003548;28;20034;-69
2021/08/07 07:21:41;;;;;;;5.95;2.90;;;19.10;99.90;;;;;;5006502;28;20040;-69
2021/08/07 07:24:07;;;;;;;8.48;2.95;;;19.10;99.90;;;;;;5003912;28;20113;-69
2021/08/07 07:26:32;;;;;;;6.03;2.08;;;19.30;99.90;;;;;;5005657;28;20121;-70
2021/08/07 07:28:59;;;;;;;4.70;2.10;;;19.80;99.90;;;;;;5006952;28;20088;-69
2021/08/07 07:31:26;;;;;;;8.73;2.40;;;20.90;99.90;;;;;;5001951;28;20047;-69
2021/08/07 07:33:51;;;;;;;4.78;2.25;;;22.30;99.90;;;;;;5010282;28;20129;-70
2021/08/07 07:36:17;;;;;;;4.47;2.00;;;22.60;99.80;;;;;;5000845;28;20112;-70
2021/08/07 07:38:43;;;;;;;8.35;2.22;;;23.20;98.80;;;;;;5012734;28;20077;-72
2021/08/07 07:41:10;;;;;;;4.22;1.92;;;24.40;97.20;;;;;;5013734;28;20042;-72
2021/08/07 07:43:36;;;;;;;4.55;1.75;;;25.70;96.20;;;;;;5005553;28;20056;-72
2021/08/07 07:46:03;;;;;;;4.57;1.80;;;26.50;92.90;;;;;;5007405;28;20503;-72
2021/08/07 07:48:29;;;;;;;5.03;1.77;;;27.00;89.60;;;;;;5008093;28;20042;-72
2021/08/07 07:50:55;;;;;;;4.03;1.65;;;26.70;90.60;;;;;;5011795;28;20441;-72
2021/08/07 07:53:20;;;;;;;4.53;1.55;;;25.90;91.10;;;;;;5007405;28;20050;-72
2021/08/07 07:55:46;;;;;;;6.15;1.58;;;25.50;91.70;;;;;;5008727;28;20129;-72
2021/08/07 07:58:12;;;;;;;3.17;1.25;;;24.90;92.40;;;;;;5008464;28;20040;-72
2021/08/07 08:00:37;;;;;;;3.35;1.30;;;24.40;93.20;;;;;;5009140;28;20033;-73
2021/08/07 08:03:03;;;;;;;4.32;1.38;;;24.00;93.70;;;;;;4989543;28;20038;-71
2021/08/07 08:05:29;;;;;;;4.03;1.25;;;23.80;93.60;;;;;;5007878;28;20046;-67
2021/08/07 08:07:55;;;;;;;5.18;1.60;;;23.20;94.40;;;;;;5006893;28;20042;-67
2021/08/07 08:10:20;;;;;;;3.53;1.38;;;22.80;95.70;;;;;;5012716;28;20065;-67
2021/08/07 08:12:46;;;;;;;5.75;1.40;;;22.50;96.40;;;;;;5005870;28;20516;-66
2021/08/07 08:15:13;;;;;;;3.78;1.58;;;22.30;96.80;;;;;;5009382;28;20094;-65
2021/08/07 08:17:39;;;;;;;5.40;1.42;;;22.00;97.70;;;;;;5005170;28;20099;-66
2021/08/07 08:20:07;;;;;;;4.05;1.10;;;21.80;97.60;;;;;;5009942;28;20093;-66
2021/08/07 08:22:33;;;;;;;2.80;1.20;;;21.60;98.30;;;;;;5008842;28;20034;-66
2021/08/07 08:24:59;;;;;;;4.63;1.63;;;21.50;98.80;;;;;;5009569;28;20386;-65
2021/08/07 08:27:26;;;;;;;4.45;1.50;;;21.40;99.40;;;;;;4995744;28;20040;-69
2021/08/07 08:29:52;;;;;;;4.68;1.60;;;21.30;99.80;;;;;;5005044;28;20095;-66
2021/08/07 08:32:17;;;;;;;4.30;1.92;;;21.20;99.90;;;;;;5007261;28;20053;-66
2021/08/07 08:34:43;;;;;;;5.28;1.67;;;21.20;99.90;;;;;;5011667;28;20038;-66
2021/08/07 08:37:09;;;;;;;6.65;1.40;;;21.40;99.90;;;;;;5010079;28;20415;-66
2021/08/07 08:39:35;;;;;;;3.55;1.55;;;21.50;99.90;;;;;;5009426;28;20544;-66
2021/08/07 08:42:02;;;;;;;5.32;1.70;;;21.40;99.90;;;;;;5006363;28;20471;-66
2021/08/07 08:44:27;;;;;;;6.22;1.50;;;21.30;99.50;;;;;;5000907;28;20049;-66
2021/08/07 08:46:53;;;;;;;5.30;1.38;;;21.20;99.60;;;;;;4999042;28;20129;-66
2021/08/07 08:49:20;;;;;;;7.50;1.58;;;21.10;99.60;;;;;;5006169;28;20449;-66
2021/08/07 08:51:50;;;;;;;4.18;1.30;;;21.10;99.90;;;;;;5005969;28;20087;-67
2021/08/07 08:54:18;;;;;;;3.13;1.20;;;21.20;99.90;;;;;;5005448;28;20063;-66
2021/08/07 08:56:47;;;;;;;3.28;1.50;;;21.30;99.90;;;;;;5001855;28;20033;-67
2021/08/07 08:59:13;;;;;;;4.72;1.10;;;21.30;99.70;;;;;;5004658;28;20042;-66
2021/08/07 09:01:39;;;;;;;5.72;1.00;;;21.40;99.90;;;;;;5004484;28;20125;-66
2021/08/07 09:04:05;;;;;;;3.28;1.20;;;21.50;99.90;;;;;;5005298;28;20125;-66
2021/08/07 09:06:32;;;;;;;1.80;1.15;;;21.60;99.90;;;;;;4992423;28;20120;-66
2021/08/07 09:09:04;;;;;;;3.20;1.20;;;21.70;99.80;;;;;;5006426;28;20042;-66
2021/08/07 09:11:31;;;;;;;;;;;21.80;98.70;;;;;;5008207;28;20037;-66
2021/08/07 09:14:21;;;;;;;2.50;1.10;;;21.80;98.60;;;;;;5006610;28;19931;-66
2021/08/07 09:16:59;;;;;;;2.78;1.10;;;21.90;99.00;;;;;;5005249;28;20080;-66
2021/08/07 09:19:26;;;;;;;3.50;1.30;;;22.00;98.90;;;;;;5008637;28;20072;-66
2021/08/07 09:22:17;;;;;;;2.03;0.98;;;21.90;98.10;;;;;;5008943;28;20459;-66
2021/08/07 09:25:13;;;;;;;2.78;1.00;;;21.90;99.10;;;;;;4989986;28;20054;-66
2021/08/07 09:27:44;;;;;;;2.55;1.10;;;21.90;98.80;;;;;;5004857;28;20044;-66
2021/08/07 09:30:13;;;;;;;2.40;1.15;;;21.90;99.20;;;;;;5008358;28;20125;-66
2021/08/07 09:32:56;;;;;;;2.08;1.00;;;21.80;97.30;;;;;;5008127;28;20474;-66
2021/08/07 09:35:24;;;;;;;3.20;1.20;;;22.00;97.60;;;;;;5005894;28;20387;-66
2021/08/07 09:38:04;;;;;;;2.45;1.00;;;22.00;98.90;;;;;;5005827;28;20038;-66
2021/08/07 09:40:58;;;;;;;3.55;1.00;;;22.00;97.90;;;;;;5006913;28;20486;-66
2021/08/07 09:43:25;;;;;;;2.92;0.93;;;22.20;97.70;;;;;;5005967;28;20041;-65
2021/08/07 09:46:04;;;;;;;2.13;0.70;;;22.20;97.20;;;;;;5002914;28;20071;-66
2021/08/07 09:48:33;;;;;;;2.30;0.80;;;22.30;96.80;;;;;;5002995;28;20065;-65
2021/08/07 09:51:15;;;;;;;3.90;0.82;;;22.30;97.50;;;;;;5008301;28;20073;-65
2021/08/07 09:53:42;;;;;;;1.80;0.60;;;22.20;95.90;;;;;;5006751;28;20065;-65
2021/08/07 09:56:08;;;;;;;1.98;0.60;;;22.40;96.70;;;;;;5007495;28;20105;-67
2021/08/07 09:58:34;;;;;;;2.05;0.80;;;22.30;94.10;;;;;;4989967;28;20046;-66
2021/08/07 10:01:01;;;;;;;1.98;0.93;;;22.40;94.80;;;;;;5005120;28;20038;-67
2021/08/07 10:03:31;;;;;;;2.83;0.63;;;22.50;95.70;;;;;;5004253;28;20038;-67
2021/08/07 10:06:17;;;;;;;2.28;0.77;;;22.70;94.30;;;;;;5007176;28;20142;-66
2021/08/07 10:08:47;;;;;;;1.98;0.70;;;22.80;94.50;;;;;;5005588;28;20034;-66
2021/08/07 10:11:13;;;;;;;2.30;0.83;;;22.90;94.90;;;;;;5009384;28;20117;-67
2021/08/07 10:13:40;;;;;;;1.52;0.60;;;22.70;94.80;;;;;;4992242;28;20549;-67
2021/08/07 10:16:07;;;;;;;1.00;0.60;;;22.70;95.40;;;;;;5010937;28;20547;-67
2021/08/07 10:18:33;;;;;;;1.85;0.90;;;22.70;95.30;;;;;;5009922;28;20545;-67
2021/08/07 10:21:03;;;;;;;2.15;0.63;;;22.70;94.90;;;;;;5000125;28;20503;-67
2021/08/07 10:23:31;;;;;;;2.95;0.85;;;22.70;95.90;;;;;;5009011;28;20052;-67
2021/08/07 10:25:57;;;;;;;1.67;0.70;;;22.70;96.00;;;;;;5009126;28;20042;-67
2021/08/07 10:28:26;;;;;;;3.03;0.82;;;22.70;95.30;;;;;;5008773;28;20066;-67
2021/08/07 10:30:53;;;;;;;2.45;0.88;;;22.80;96.00;;;;;;5007161;28;20034;-67
2021/08/07 10:33:24;;;;;;;1.95;0.70;;;22.90;95.80;;;;;;5010678;28;20045;-67
2021/08/07 10:35:50;;;;;;;2.60;0.65;;;22.80;96.40;;;;;;4991480;28;20054;-66
2021/08/07 10:38:16;;;;;;;4.38;0.90;;;22.90;96.00;;;;;;5010363;28;20109;-67
2021/08/07 10:40:42;;;;;;;2.13;0.70;;;23.00;95.70;;;;;;5008082;28;20056;-66
2021/08/07 10:43:08;;;;;;;2.88;0.88;;;23.00;95.40;;;;;;4990595;28;20367;-67
2021/08/07 10:45:40;;;;;;;2.95;0.93;;;23.20;96.10;;;;;;5011505;28;20534;-67
2021/08/07 10:48:06;;;;;;;;;;;23.40;96.10;;;;;;5010091;28;20483;-67
2021/08/07 10:50:35;;;;;;;1.73;0.75;;;23.50;94.90;;;;;;5008534;28;19929;-67
2021/08/07 10:53:03;;;;;;;2.20;0.75;;;23.40;93.70;;;;;;5008560;28;20030;-67
2021/08/07 10:55:53;;;;;;;2.97;0.70;;;23.40;94.40;;;;;;5006992;28;20083;-67
2021/08/07 10:58:49;;;;;;;2.30;1.05;;;23.40;93.00;;;;;;5002037;28;20042;-67
2021/08/07 11:01:27;;;;;;;3.63;1.10;;;23.50;94.80;;;;;;5008847;28;20044;-67
2021/08/07 11:04:01;;;;;;;2.03;1.20;;;23.30;94.30;;;;;;5007395;28;20449;-67
2021/08/07 11:06:42;;;;;;;3.53;0.65;;;23.30;93.60;;;;;;5007075;28;20675;-67
2021/08/07 11:09:30;;;;;;;3.93;0.80;;;23.30;94.90;;;;;;5010290;28;20083;-67
2021/08/07 11:12:10;;;;;;;2.67;1.00;;;23.30;95.10;;;;;;5012307;28;20030;-66
2021/08/07 11:14:47;;;;;;;1.30;0.70;;;23.40;94.20;;;;;;5006724;28;20491;-67
2021/08/07 11:17:13;;;;;;;2.40;0.90;;;23.40;95.30;;;;;;5006638;28;20045;-67
2021/08/07 11:19:50;;;;;;;2.65;0.88;;;23.60;95.40;;;;;;5017159;28;20034;-67
2021/08/07 11:22:40;;;;;;;1.85;0.70;;;23.90;95.70;;;;;;4989904;28;20034;-67
2021/08/07 11:25:09;;;;;;;2.35;1.10;;;24.10;93.80;;;;;;5012012;28;20041;-68
2021/08/07 11:27:55;;;;;;;3.25;1.05;;;24.10;93.00;;;;;;5006818;28;20126;-68
2021/08/07 11:30:33;;;;;;;1.98;0.80;;;24.30;93.70;;;;;;5009253;28;21819;-68
2021/08/07 11:33:00;;;;;;;2.88;0.98;;;24.20;92.00;;;;;;5004541;28;20038;-67
2021/08/07 11:36:04;;;;;;;2.45;0.77;;;24.30;92.90;;;;;;5010484;28;20061;-67
2021/08/07 11:38:27;;;;;;;4.38;1.02;;;24.30;92.40;;;;;;5005149;28;20049;-67
2021/08/07 11:41:05;;;;;;;1.83;0.73;;;24.30;93.30;;;;;;5007869;28;20109;-67
2021/08/07 11:43:43;;;;;;;3.72;1.00;;;24.50;93.30;;;;;;5008073;28;20042;-67
2021/08/07 11:46:11;;;;;;;3.45;0.90;;;24.90;91.30;;;;;;5008759;28;20109;-67
2021/08/07 11:48:39;;;;;;;3.75;0.77;;;25.00;91.20;;;;;;5008286;28;20085;-67
2021/08/07 11:51:07;;;;;;;2.17;0.82;;;24.80;90.80;;;;;;5011119;28;20070;-67
2021/08/07 11:53:36;;;;;;;1.83;1.00;;;24.50;91.20;;;;;;5010138;28;20037;-67
2021/08/07 11:56:04;;;;;;;1.20;0.75;;;24.10;91.00;;;;;;5006480;28;20042;-67
2021/08/07 11:58:31;;;;;;;1.60;0.85;;;23.90;91.20;;;;;;5007473;28;20033;-67
2021/08/07 12:01:02;;;;;;;1.85;0.80;;;23.80;92.40;;;;;;5005622;28;20046;-67
2021/08/07 12:03:41;;;;;;;2.42;1.10;;;23.80;94.30;;;;;;5006152;28;20039;-67
2021/08/07 12:06:07;;;;;;;4.05;0.80;;;23.90;92.00;;;;;;5001452;28;20053;-67
2021/08/07 12:08:34;;;;;;;2.50;0.90;;;24.00;93.50;;;;;;4998484;28;20038;-67
2021/08/07 12:11:02;;;;;;;2.95;0.95;;;24.20;92.90;;;;;;5005866;28;20080;-67
2021/08/07 12:13:52;;;;;;;1.95;0.88;;;23.90;88.50;;;;;;5002107;28;20065;-67
2021/08/07 12:16:26;;;;;;;2.80;1.13;;;23.70;91.60;;;;;;4996013;28;20042;-67
2021/08/07 12:19:00;;;;;;;1.92;0.90;;;23.80;91.30;;;;;;5004247;28;20038;-67
2021/08/07 12:21:35;;;;;;;4.22;0.93;;;24.10;93.60;;;;;;5008322;28;20069;-67
2021/08/07 12:24:07;;;;;;;3.67;0.90;;;24.20;92.10;;;;;;4996609;28;20114;-67
2021/08/07 12:26:41;;;;;;;1.77;0.90;;;24.30;92.60;;;;;;4988056;28;20049;-67
2021/08/07 12:29:10;;;;;;;2.63;0.75;;;24.20;93.10;;;;;;4998355;28;20049;-67
2021/08/07 12:31:54;;;;;;;1.90;0.95;;;24.20;93.00;;;;;;5006829;28;20525;-67
2021/08/07 12:34:25;;;;;;;2.03;0.98;;;24.10;91.70;;;;;;5010254;28;20038;-67
2021/08/07 12:37:14;;;;;;;2.05;0.93;;;24.20;92.80;;;;;;4988625;28;20036;-67
2021/08/07 12:39:41;;;;;;;1.80;0.70;;;24.30;92.90;;;;;;4997426;28;20042;-67
2021/08/07 12:42:08;;;;;;;1.70;0.82;;;24.30;93.00;;;;;;5007872;28;20046;-67
2021/08/07 12:44:35;;;;;;;2.30;1.00;;;24.20;92.80;;;;;;5008807;28;20053;-67
2021/08/07 12:47:01;;;;;;;2.90;0.93;;;24.10;92.90;;;;;;5003732;28;20065;-66
2021/08/07 12:49:42;;;;;;;3.60;1.20;;;24.00;93.20;;;;;;5007934;28;20292;-66
2021/08/07 12:52:09;;;;;;;;;;;24.10;92.40;;;;;;5007154;28;20087;-68
2021/08/07 12:54:35;;;;;;;3.78;0.90;;;24.10;92.40;;;;;;5000210;28;20433;-66